Time;durP1;ratioP1;P1;durP2;ratioP2;P2;SDS_P1;SDS_P2;PMS_P1;PMS_P2;Temp;Humidity;BMP_temperature;BMP_pressure;BME280_temperature;BME280_humidity;BME280_pressure;Samples;Min_cycle;Max_cycle;Signal;HPM_P1;HPM_P2
2022/04/24 00:01:20;;;;;;;2.28;0.80;;;19.20;99.90;;;;;;5087078;28;20864;-85
2022/04/24 00:03:48;;;;;;;1.90;0.80;;;19.40;99.90;;;;;;5087041;28;20369;-85
2022/04/24 00:06:15;;;;;;;2.00;0.50;;;19.50;99.90;;;;;;5087825;28;20388;-86
2022/04/24 00:08:42;;;;;;;2.85;0.50;;;19.70;99.90;;;;;;5069405;28;20392;-85
2022/04/24 00:11:09;;;;;;;2.65;0.60;;;19.80;99.90;;;;;;5090987;28;20392;-85
2022/04/24 00:13:41;;;;;;;5.15;0.85;;;20.00;99.90;;;;;;5087293;28;20364;-85
2022/04/24 00:16:09;;;;;;;1.40;0.60;;;19.90;99.90;;;;;;5086943;28;20419;-85
2022/04/24 00:18:38;;;;;;;2.00;0.70;;;20.00;99.90;;;;;;5086500;28;20364;-85
2022/04/24 00:21:05;;;;;;;2.45;0.70;;;19.90;99.90;;;;;;5087008;28;20744;-85
2022/04/24 00:23:33;;;;;;;3.17;0.70;;;19.90;99.90;;;;;;5086765;28;20369;-84
2022/04/24 00:26:00;;;;;;;1.98;0.70;;;19.70;99.90;;;;;;5086674;28;20437;-85
2022/04/24 00:28:27;;;;;;;1.88;0.70;;;19.70;99.90;;;;;;5086749;28;20562;-85
2022/04/24 00:30:55;;;;;;;3.70;0.80;;;19.80;99.90;;;;;;5087036;28;20956;-85
2022/04/24 00:33:23;;;;;;;2.38;0.70;;;20.10;99.90;;;;;;5086733;28;20437;-85
2022/04/24 00:35:50;;;;;;;2.10;0.60;;;20.30;99.90;;;;;;5086755;28;20972;-84
2022/04/24 00:38:17;;;;;;;3.20;0.80;;;20.40;99.90;;;;;;5086594;28;20377;-85
2022/04/24 00:40:47;;;;;;;1.48;0.52;;;20.40;99.90;;;;;;5086519;28;20412;-85
2022/04/24 00:43:15;;;;;;;1.95;0.70;;;20.40;99.90;;;;;;5086619;28;20455;-85
2022/04/24 00:45:42;;;;;;;1.65;0.68;;;20.40;99.90;;;;;;5086556;28;20474;-86
2022/04/24 00:48:09;;;;;;;2.03;0.55;;;20.60;99.90;;;;;;5086619;28;20357;-85
2022/04/24 00:50:39;;;;;;;2.30;0.50;;;20.80;99.90;;;;;;5086319;28;20376;-84
2022/04/24 00:53:07;;;;;;;1.52;0.50;;;21.10;99.90;;;;;;5068376;28;20426;-86
2022/04/24 00:55:34;;;;;;;1.60;0.50;;;21.40;99.90;;;;;;5086203;28;20426;-86
2022/04/24 00:58:01;;;;;;;2.65;0.50;;;21.80;99.90;;;;;;5086421;28;20379;-84
2022/04/24 01:00:28;;;;;;;2.38;0.40;;;22.00;99.90;;;;;;5086363;28;20380;-85
2022/04/24 01:02:56;;;;;;;1.55;0.40;;;22.00;99.90;;;;;;5086610;28;20400;-85
2022/04/24 01:05:23;;;;;;;2.65;0.50;;;21.90;99.10;;;;;;5086242;28;20432;-85
2022/04/24 01:07:50;;;;;;;0.90;0.40;;;21.90;98.40;;;;;;5086305;28;20376;-84
2022/04/24 01:10:17;;;;;;;1.98;0.50;;;22.00;98.20;;;;;;5086250;28;20377;-85
2022/04/24 01:12:44;;;;;;;0.90;0.50;;;22.20;98.10;;;;;;5086494;28;20480;-86
2022/04/24 01:15:11;;;;;;;2.83;0.68;;;22.40;97.40;;;;;;5086023;28;20469;-85
2022/04/24 01:17:39;;;;;;;2.10;0.55;;;22.50;96.90;;;;;;5086317;28;20452;-86
2022/04/24 01:20:07;;;;;;;0.93;0.45;;;22.70;95.50;;;;;;5067930;28;20427;-85
2022/04/24 01:22:34;;;;;;;1.75;0.50;;;23.10;93.90;;;;;;5083059;28;20433;-87
2022/04/24 01:25:01;;;;;;;1.65;0.57;;;23.90;91.40;;;;;;5068192;28;20395;-85
2022/04/24 01:27:27;;;;;;;1.70;0.60;;;24.70;88.20;;;;;;5086259;28;20369;-85
2022/04/24 01:29:54;;;;;;;1.95;0.40;;;25.50;82.40;;;;;;5086106;28;20376;-85
2022/04/24 01:32:21;;;;;;;0.63;0.40;;;25.60;75.10;;;;;;5089662;28;20411;-84
2022/04/24 01:34:48;;;;;;;0.93;0.40;;;25.90;71.90;;;;;;5071072;28;20407;-84
2022/04/24 01:37:15;;;;;;;1.40;0.47;;;25.90;70.20;;;;;;5089824;28;20445;-87
2022/04/24 01:39:42;;;;;;;1.25;0.50;;;26.00;70.00;;;;;;5089725;28;20428;-87
2022/04/24 01:42:09;;;;;;;2.45;0.60;;;26.70;69.40;;;;;;5089618;28;20384;-87
2022/04/24 01:44:36;;;;;;;1.02;0.50;;;26.50;65.60;;;;;;5089609;28;20376;-85
2022/04/24 01:47:03;;;;;;;1.30;0.50;;;26.50;67.00;;;;;;5089535;28;20371;-84
2022/04/24 01:49:30;;;;;;;1.63;0.40;;;26.60;69.00;;;;;;5089430;28;20452;-85
2022/04/24 01:51:57;;;;;;;1.70;0.52;;;27.40;66.20;;;;;;5089394;28;20410;-85
2022/04/24 01:54:24;;;;;;;1.50;0.60;;;28.10;63.40;;;;;;5089255;28;20804;-85
2022/04/24 01:56:51;;;;;;;1.70;0.60;;;28.20;61.90;;;;;;5071142;28;20372;-84
2022/04/24 01:59:19;;;;;;;1.50;0.50;;;27.10;61.70;;;;;;5089386;28;20871;-83
2022/04/24 02:01:46;;;;;;;1.25;0.47;;;26.70;61.80;;;;;;5089299;28;20377;-84
2022/04/24 02:04:13;;;;;;;3.33;0.70;;;25.90;63.70;;;;;;5089309;28;20471;-84
2022/04/24 02:06:40;;;;;;;1.65;0.70;;;25.10;66.90;;;;;;5089350;28;20394;-87
2022/04/24 02:09:07;;;;;;;1.70;0.47;;;24.50;70.00;;;;;;5089295;28;20380;-83
2022/04/24 02:11:34;;;;;;;1.30;0.52;;;25.00;66.80;;;;;;5089000;28;20747;-84
2022/04/24 02:14:01;;;;;;;2.10;0.40;;;24.70;65.90;;;;;;5089054;28;20936;-83
2022/04/24 02:16:28;;;;;;;1.42;0.90;;;24.80;64.90;;;;;;5070628;28;20406;-83
2022/04/24 02:18:55;;;;;;;7.28;3.72;;;25.80;63.80;;;;;;5089129;28;20429;-84
2022/04/24 02:21:22;;;;;;;10.82;4.93;;;27.30;60.80;;;;;;5088845;28;20455;-86
2022/04/24 02:23:48;;;;;;;10.57;6.53;;;28.10;59.50;;;;;;5088845;28;20372;-84
2022/04/24 02:26:15;;;;;;;2.42;1.10;;;28.50;56.80;;;;;;5088715;28;20400;-84
2022/04/24 02:28:42;;;;;;;6.37;3.03;;;28.50;54.60;;;;;;5088765;28;20713;-85
2022/04/24 02:31:09;;;;;;;2.67;1.15;;;28.50;53.90;;;;;;5088417;28;20376;-85
2022/04/24 02:33:37;;;;;;;1.83;0.68;;;28.50;53.50;;;;;;5070466;28;20411;-87
2022/04/24 02:36:04;;;;;;;1.92;0.93;;;28.50;53.60;;;;;;5088453;28;21047;-84
2022/04/24 02:38:31;;;;;;;1.27;0.80;;;28.40;54.80;;;;;;5088567;28;20450;-84
2022/04/24 02:40:58;;;;;;;2.17;0.75;;;28.60;55.50;;;;;;5088455;28;20782;-84
2022/04/24 02:43:26;;;;;;;2.50;0.70;;;28.60;53.90;;;;;;5088534;28;20848;-86
2022/04/24 02:45:53;;;;;;;1.80;0.70;;;28.90;53.10;;;;;;5088298;28;20407;-85
2022/04/24 02:48:20;;;;;;;1.27;0.70;;;29.50;52.90;;;;;;5088314;28;20448;-86
2022/04/24 02:50:46;;;;;;;1.98;0.85;;;30.20;51.30;;;;;;5088444;28;20829;-86
2022/04/24 02:53:15;;;;;;;2.25;0.60;;;30.50;51.30;;;;;;5088317;28;20377;-84
2022/04/24 02:55:41;;;;;;;1.10;0.50;;;30.60;48.90;;;;;;5088305;28;20392;-85
2022/04/24 02:58:08;;;;;;;2.63;0.60;;;29.10;49.40;;;;;;5088105;28;20364;-85
2022/04/24 03:00:49;;;;;;;1.27;0.50;;;27.30;52.80;;;;;;5089565;28;20382;-86
2022/04/24 03:03:20;;;;;;;5.32;0.73;;;25.80;55.30;;;;;;5089226;28;20457;-85
2022/04/24 03:05:48;;;;;;;1.73;0.80;;;24.90;58.20;;;;;;5089741;28;20403;-87
2022/04/24 03:08:16;;;;;;;1.80;0.57;;;25.70;58.50;;;;;;5087982;28;20405;-85
2022/04/24 03:10:46;;;;;;;1.02;0.60;;;27.10;57.90;;;;;;5088192;28;20804;-84
2022/04/24 03:13:13;;;;;;;2.70;1.10;;;28.60;53.40;;;;;;5096402;28;20403;-86
2022/04/24 03:15:40;;;;;;;2.28;1.80;;;29.80;51.70;;;;;;5093063;28;20407;-84
2022/04/24 03:18:07;;;;;;;1.00;0.68;;;30.40;51.70;;;;;;5088063;28;20369;-85
2022/04/24 03:20:34;;;;;;;1.20;0.60;;;31.00;50.10;;;;;;5087850;28;20369;-86
2022/04/24 03:23:01;;;;;;;1.13;0.70;;;31.10;49.40;;;;;;5087600;28;21175;-85
2022/04/24 03:25:31;;;;;;;1.48;0.60;;;31.60;48.70;;;;;;5087783;28;20383;-86
2022/04/24 03:27:58;;;;;;;1.38;0.52;;;32.00;47.50;;;;;;5087659;28;20415;-85
2022/04/24 03:30:25;;;;;;;2.00;0.70;;;32.00;47.30;;;;;;5087554;28;20459;-85
2022/04/24 03:32:52;;;;;;;1.00;0.50;;;32.20;46.50;;;;;;5087597;28;20379;-85
2022/04/24 03:35:19;;;;;;;1.25;0.57;;;31.90;46.00;;;;;;5087239;28;20401;-84
2022/04/24 03:37:46;;;;;;;1.17;0.60;;;31.90;46.40;;;;;;5087483;28;20513;-86
2022/04/24 03:40:13;;;;;;;2.20;0.57;;;31.90;46.40;;;;;;5087666;28;20424;-85
2022/04/24 03:42:40;;;;;;;1.55;0.60;;;32.00;46.00;;;;;;5092168;28;20387;-84
2022/04/24 03:45:09;;;;;;;1.48;0.50;;;31.90;46.00;;;;;;5097043;28;20360;-85
2022/04/24 03:47:36;;;;;;;3.07;0.60;;;31.50;46.70;;;;;;5087484;28;20376;-85
2022/04/24 03:50:04;;;;;;;1.40;0.70;;;31.90;46.50;;;;;;5087307;28;20373;-86
2022/04/24 03:52:31;;;;;;;1.58;0.63;;;32.50;46.50;;;;;;5086956;28;20377;-87
2022/04/24 03:54:58;;;;;;;1.45;0.60;;;32.60;46.20;;;;;;5087067;28;20450;-86
2022/04/24 03:57:25;;;;;;;1.80;0.60;;;32.90;45.10;;;;;;5087077;28;20379;-86
2022/04/24 03:59:52;;;;;;;6.63;0.93;;;32.70;45.60;;;;;;5087056;28;20380;-85
2022/04/24 04:02:22;;;;;;;0.85;0.70;;;32.60;46.00;;;;;;5068922;28;20456;-87
2022/04/24 04:04:49;;;;;;;1.15;0.65;;;31.60;46.40;;;;;;5087025;28;20714;-85
2022/04/24 04:07:16;;;;;;;1.60;0.60;;;31.50;46.90;;;;;;5087135;28;20380;-85
2022/04/24 04:09:43;;;;;;;1.00;0.70;;;31.60;47.50;;;;;;5086986;28;20372;-86
2022/04/24 04:12:11;;;;;;;3.20;0.85;;;30.70;47.70;;;;;;5086730;28;20455;-87
2022/04/24 04:14:38;;;;;;;1.40;0.70;;;29.30;50.30;;;;;;5086907;28;20479;-85
2022/04/24 04:17:05;;;;;;;1.60;0.80;;;29.30;51.80;;;;;;5087067;28;20381;-86
2022/04/24 04:19:33;;;;;;;2.10;0.70;;;29.90;51.40;;;;;;5086826;28;20368;-86
2022/04/24 04:22:00;;;;;;;1.67;0.80;;;30.50;50.50;;;;;;5086891;28;20391;-87
2022/04/24 04:24:27;;;;;;;1.55;0.80;;;31.20;50.00;;;;;;5086819;28;20380;-84
2022/04/24 04:26:54;;;;;;;1.60;0.70;;;31.50;49.20;;;;;;5086851;28;20434;-87
2022/04/24 04:29:21;;;;;;;1.60;0.70;;;31.70;48.80;;;;;;5086652;28;20456;-86
2022/04/24 04:31:48;;;;;;;1.20;0.70;;;31.80;48.20;;;;;;5086904;28;20403;-87
2022/04/24 04:34:15;;;;;;;1.95;0.80;;;31.70;48.30;;;;;;5086262;28;20389;-86
2022/04/24 04:36:42;;;;;;;0.90;0.70;;;31.70;49.40;;;;;;5086832;28;20859;-86
2022/04/24 04:39:09;;;;;;;1.58;0.82;;;31.80;48.40;;;;;;5086696;28;20406;-86
2022/04/24 04:41:36;;;;;;;2.35;0.70;;;31.90;47.60;;;;;;5086659;28;20380;-86
2022/04/24 04:44:03;;;;;;;2.03;1.03;;;32.00;48.20;;;;;;5086476;28;20869;-84
2022/04/24 04:46:30;;;;;;;1.70;1.10;;;31.80;48.90;;;;;;5086535;28;20397;-86
2022/04/24 04:48:57;;;;;;;5.20;3.55;;;31.50;49.20;;;;;;5086486;28;20392;-85
2022/04/24 04:51:24;;;;;;;1.38;0.95;;;31.40;49.80;;;;;;5086525;28;20455;-85
2022/04/24 04:53:54;;;;;;;1.85;0.90;;;31.40;49.10;;;;;;5086449;28;20376;-86
2022/04/24 04:56:22;;;;;;;1.48;0.68;;;30.90;51.00;;;;;;5086528;28;20403;-87
2022/04/24 04:58:49;;;;;;;1.60;0.70;;;30.90;50.30;;;;;;5068636;28;21012;-85
2022/04/24 05:01:16;;;;;;;1.67;0.70;;;30.90;50.70;;;;;;5086493;28;20431;-86
2022/04/24 05:03:43;;;;;;;2.35;0.75;;;31.10;50.10;;;;;;5086630;28;20372;-85
2022/04/24 05:06:10;;;;;;;2.10;0.90;;;30.90;50.90;;;;;;5088629;28;20396;-85
2022/04/24 05:08:37;;;;;;;1.67;0.85;;;30.90;50.60;;;;;;5090901;28;20723;-85
2022/04/24 05:11:04;;;;;;;2.83;0.90;;;30.90;51.10;;;;;;5072161;28;20383;-86
2022/04/24 05:13:31;;;;;;;1.70;0.80;;;30.40;51.10;;;;;;5090590;28;20391;-85
2022/04/24 05:15:59;;;;;;;2.55;0.80;;;30.00;52.80;;;;;;5090512;28;20487;-83
2022/04/24 05:18:26;;;;;;;1.88;0.98;;;29.80;53.40;;;;;;5090415;28;20890;-83
2022/04/24 05:20:53;;;;;;;2.45;0.80;;;29.90;53.50;;;;;;5090261;28;20379;-85
2022/04/24 05:23:20;;;;;;;1.50;0.80;;;30.30;52.30;;;;;;5090351;28;20751;-86
2022/04/24 05:25:47;;;;;;;2.20;0.70;;;30.20;52.30;;;;;;5089799;28;20371;-86
2022/04/24 05:28:14;;;;;;;1.37;0.60;;;29.90;51.60;;;;;;5090024;28;20419;-84
2022/04/24 05:30:41;;;;;;;2.33;0.80;;;29.30;53.00;;;;;;5089690;28;20368;-85
2022/04/24 05:33:08;;;;;;;1.35;0.60;;;28.80;54.10;;;;;;5089786;28;20455;-85
2022/04/24 05:35:36;;;;;;;2.92;0.75;;;28.30;54.40;;;;;;5089819;28;20428;-85
2022/04/24 05:38:03;;;;;;;1.35;0.60;;;27.60;55.60;;;;;;5089893;28;20450;-84
2022/04/24 05:40:30;;;;;;;2.35;0.80;;;27.00;56.40;;;;;;5089828;28;20728;-84
2022/04/24 05:42:57;;;;;;;2.90;0.88;;;26.30;58.30;;;;;;5089660;28;20755;-85
2022/04/24 05:45:27;;;;;;;2.70;0.80;;;25.50;60.10;;;;;;5089760;28;20852;-85
2022/04/24 05:47:55;;;;;;;1.67;0.80;;;25.00;61.40;;;;;;5089837;28;20974;-84
2022/04/24 05:50:23;;;;;;;3.13;0.98;;;24.60;63.60;;;;;;5089432;28;20376;-84
2022/04/24 05:52:53;;;;;;;2.10;0.60;;;24.30;63.40;;;;;;5089631;28;20436;-83
2022/04/24 05:55:20;;;;;;;2.80;0.70;;;23.90;64.00;;;;;;5089454;28;20490;-83
2022/04/24 05:57:49;;;;;;;2.97;1.17;;;23.70;65.40;;;;;;5089571;28;20368;-84
2022/04/24 06:00:18;;;;;;;12.05;6.88;;;23.50;66.00;;;;;;5071075;28;20373;-85
2022/04/24 06:02:45;;;;;;;2.33;1.00;;;23.30;66.70;;;;;;5089525;28;20380;-85
2022/04/24 06:05:12;;;;;;;1.52;0.90;;;23.20;67.90;;;;;;5089358;28;20916;-84
2022/04/24 06:07:40;;;;;;;1.83;0.70;;;23.10;69.00;;;;;;5089559;28;20368;-85
2022/04/24 06:10:10;;;;;;;2.85;0.73;;;22.90;68.70;;;;;;5089893;28;20459;-86
2022/04/24 06:12:51;;;;;;;1.67;0.80;;;22.80;68.90;;;;;;5091749;28;20361;-86
2022/04/24 06:15:21;;;;;;;2.35;0.60;;;22.70;69.80;;;;;;5089863;28;20895;-85
2022/04/24 06:17:57;;;;;;;2.53;0.90;;;22.60;70.30;;;;;;5070443;28;20376;-86
2022/04/24 06:20:27;;;;;;;1.30;0.60;;;22.60;71.20;;;;;;5088862;28;20385;-85
2022/04/24 06:22:56;;;;;;;1.83;0.70;;;22.60;71.00;;;;;;5071072;28;20388;-87
2022/04/24 06:25:28;;;;;;;0.98;0.70;;;22.50;71.90;;;;;;5089349;28;20463;-86
2022/04/24 06:27:56;;;;;;;1.77;0.82;;;22.50;72.50;;;;;;5089024;28;20392;-84
2022/04/24 06:30:25;;;;;;;2.92;0.80;;;22.40;72.80;;;;;;5088875;28;20410;-87
2022/04/24 06:32:52;;;;;;;1.10;0.60;;;22.50;72.10;;;;;;5088668;28;20369;-85
2022/04/24 06:35:19;;;;;;;2.55;0.60;;;22.50;72.00;;;;;;5069312;28;20415;-92
2022/04/24 06:37:49;;;;;;;3.85;0.70;;;22.40;72.80;;;;;;5089508;28;20456;-91
2022/04/24 06:40:19;;;;;;;3.15;0.70;;;22.10;73.40;;;;;;5089523;28;20376;-85
2022/04/24 06:42:52;;;;;;;1.10;0.57;;;21.90;74.10;;;;;;5088702;28;20380;-87
2022/04/24 06:45:30;;;;;;;1.85;0.70;;;21.70;74.50;;;;;;5088801;28;20443;-84
2022/04/24 06:47:59;;;;;;;3.58;0.70;;;21.50;76.10;;;;;;5089641;28;20376;-89
2022/04/24 06:50:28;;;;;;;2.28;0.70;;;21.30;77.90;;;;;;5090995;28;20433;-88
2022/04/24 06:53:01;;;;;;;4.78;0.93;;;21.20;81.70;;;;;;5090791;28;20876;-87
2022/04/24 06:55:30;;;;;;;5.60;0.73;;;21.00;85.10;;;;;;5090790;28;20392;-89
2022/04/24 06:57:58;;;;;;;1.63;0.70;;;20.80;88.60;;;;;;5099436;28;20879;-85
2022/04/24 07:00:30;;;;;;;2.50;0.70;;;20.70;91.40;;;;;;5093513;28;20388;-89
2022/04/24 07:02:57;;;;;;;2.72;0.77;;;20.50;92.60;;;;;;5088802;28;20442;-88
2022/04/24 07:05:26;;;;;;;1.35;0.70;;;20.30;94.10;;;;;;5070541;28;20384;-90
2022/04/24 07:07:53;;;;;;;2.90;0.70;;;20.10;96.00;;;;;;5088195;28;20430;-88
2022/04/24 07:10:20;;;;;;;1.77;0.80;;;20.00;97.10;;;;;;5088324;28;20426;-86
2022/04/24 07:12:52;;;;;;;1.50;0.82;;;19.90;98.20;;;;;;5088112;28;20404;-86
2022/04/24 07:15:23;;;;;;;2.53;0.70;;;19.80;99.20;;;;;;5088130;28;20411;-90
2022/04/24 07:17:53;;;;;;;2.20;0.80;;;19.60;99.90;;;;;;5088202;28;20377;-92
2022/04/24 07:20:21;;;;;;;3.20;0.80;;;19.50;99.90;;;;;;5088195;28;20376;-85
2022/04/24 07:22:50;;;;;;;2.20;0.90;;;19.40;99.90;;;;;;5087935;28;20364;-86
2022/04/24 07:25:24;;;;;;;2.53;0.93;;;19.20;99.90;;;;;;5088037;28;20421;-86
2022/04/24 07:27:51;;;;;;;2.78;1.40;;;19.10;99.90;;;;;;5068818;28;20424;-87
2022/04/24 07:30:19;;;;;;;3.22;1.15;;;19.00;99.90;;;;;;5087862;28;20372;-88
2022/04/24 07:32:48;;;;;;;2.30;1.00;;;19.00;99.90;;;;;;5087828;28;20388;-89
2022/04/24 07:35:24;;;;;;;2.10;1.00;;;18.90;99.90;;;;;;5069307;28;20578;-86
2022/04/24 07:37:52;;;;;;;3.90;0.93;;;18.80;99.90;;;;;;5087660;28;20452;-89
2022/04/24 07:40:21;;;;;;;1.85;0.90;;;18.80;99.90;;;;;;5087758;28;20490;-91
2022/04/24 07:42:52;;;;;;;2.80;1.20;;;18.80;99.90;;;;;;5069395;28;20887;-88
2022/04/24 07:45:24;;;;;;;3.90;1.10;;;18.80;99.90;;;;;;5087739;28;20368;-87
2022/04/24 07:47:54;;;;;;;3.83;1.10;;;18.90;99.90;;;;;;5087547;28;20374;-91
2022/04/24 07:50:22;;;;;;;2.10;0.90;;;19.00;99.90;;;;;;5087450;28;20361;-89
2022/04/24 07:52:50;;;;;;;2.08;0.75;;;19.00;99.90;;;;;;5087667;28;20443;-94
2022/04/24 07:55:19;;;;;;;2.95;0.80;;;19.00;99.90;;;;;;5087548;28;20400;-89
2022/04/24 07:57:47;;;;;;;1.98;0.70;;;19.10;99.90;;;;;;5087619;28;20371;-86
2022/04/24 08:00:16;;;;;;;3.17;0.80;;;19.10;99.90;;;;;;5087467;28;20382;-89
2022/04/24 08:02:46;;;;;;;2.22;0.70;;;19.10;99.90;;;;;;5087590;28;20391;-90
2022/04/24 08:05:19;;;;;;;2.33;0.80;;;19.10;99.90;;;;;;5087448;28;20380;-88
2022/04/24 08:07:47;;;;;;;3.72;0.80;;;19.10;99.90;;;;;;5087269;28;20364;-88
2022/04/24 08:10:14;;;;;;;1.30;0.70;;;19.10;99.90;;;;;;5087257;28;20381;-88
2022/04/24 08:12:42;;;;;;;2.13;0.75;;;19.10;99.90;;;;;;5087017;28;20446;-88
2022/04/24 08:15:09;;;;;;;2.50;0.93;;;19.10;99.90;;;;;;5086946;28;20396;-87
2022/04/24 08:17:37;;;;;;;3.20;0.90;;;19.10;99.90;;;;;;5087212;28;20389;-87
2022/04/24 08:20:05;;;;;;;3.30;0.80;;;19.00;99.90;;;;;;5087043;28;20448;-86
2022/04/24 08:22:40;;;;;;;2.50;0.88;;;19.00;99.90;;;;;;5068693;28;20389;-87
2022/04/24 08:25:08;;;;;;;2.97;0.80;;;19.00;99.90;;;;;;5086945;28;20372;-86
2022/04/24 08:27:36;;;;;;;2.83;0.95;;;18.90;99.90;;;;;;5086857;28;20383;-88
2022/04/24 08:30:07;;;;;;;2.42;0.90;;;18.90;99.90;;;;;;5086923;28;20887;-87
2022/04/24 08:32:35;;;;;;;3.78;0.90;;;18.90;99.90;;;;;;5086933;28;20419;-86
2022/04/24 08:35:03;;;;;;;2.20;0.80;;;18.90;99.90;;;;;;5086656;28;20406;-87
2022/04/24 08:37:30;;;;;;;4.82;0.90;;;18.90;99.90;;;;;;5086745;28;20412;-88
2022/04/24 08:39:57;;;;;;;3.35;0.90;;;18.90;99.90;;;;;;5088708;28;20774;-88
2022/04/24 08:42:24;;;;;;;1.92;0.82;;;18.90;99.90;;;;;;5091085;28;20384;-89
2022/04/24 08:44:55;;;;;;;4.38;0.98;;;18.90;99.90;;;;;;5091011;28;20373;-86
2022/04/24 08:47:27;;;;;;;2.88;1.00;;;18.90;99.90;;;;;;5091015;28;20407;-87
2022/04/24 08:49:58;;;;;;;4.00;1.10;;;18.80;99.90;;;;;;5090872;28;20364;-86
2022/04/24 08:52:29;;;;;;;3.60;1.10;;;18.80;99.90;;;;;;5090698;28;20372;-88
2022/04/24 08:54:58;;;;;;;3.50;1.05;;;18.80;99.90;;;;;;5090653;28;20392;-87
2022/04/24 08:57:26;;;;;;;4.90;1.20;;;18.80;99.90;;;;;;5088115;28;20384;-88
2022/04/24 08:59:54;;;;;;;6.35;1.13;;;18.80;99.90;;;;;;5090746;28;20443;-87
2022/04/24 09:02:22;;;;;;;3.95;1.10;;;18.80;99.90;;;;;;5072475;28;20749;-87
2022/04/24 09:04:52;;;;;;;5.07;1.40;;;18.70;99.90;;;;;;5091079;28;20365;-90
2022/04/24 09:07:20;;;;;;;3.42;1.00;;;18.70;99.90;;;;;;5094895;28;20716;-88
2022/04/24 09:09:53;;;;;;;2.67;0.83;;;18.70;99.90;;;;;;5107217;28;20368;-86
2022/04/24 09:12:26;;;;;;;2.63;1.10;;;18.70;99.90;;;;;;5092341;28;20376;-89
2022/04/24 09:14:57;;;;;;;2.40;1.02;;;18.70;99.90;;;;;;5090656;28;20470;-87
2022/04/24 09:17:27;;;;;;;3.72;1.08;;;18.60;99.90;;;;;;5090239;28;20447;-93
2022/04/24 09:19:56;;;;;;;3.75;1.00;;;18.70;99.90;;;;;;5090291;28;20404;-91
2022/04/24 09:22:24;;;;;;;2.80;1.00;;;18.70;99.90;;;;;;5090208;28;20372;-90
2022/04/24 09:24:56;;;;;;;3.00;0.98;;;18.60;99.90;;;;;;5090336;28;20793;-89
2022/04/24 09:27:34;;;;;;;4.28;1.05;;;18.70;99.90;;;;;;5090174;28;20376;-87
2022/04/24 09:30:08;;;;;;;2.93;1.10;;;18.70;99.90;;;;;;5090153;28;20407;-87
2022/04/24 09:32:49;;;;;;;3.10;1.00;;;18.60;99.90;;;;;;5090058;28;20418;-89
2022/04/24 09:35:48;;;;;;;2.45;1.10;;;18.60;99.90;;;;;;5090180;28;20416;-88
2022/04/24 09:38:19;;;;;;;1.75;1.10;;;18.60;99.90;;;;;;5027844;28;20729;-87
2022/04/24 09:40:48;;;;;;;3.60;1.30;;;18.60;99.90;;;;;;5027700;28;20396;-86
2022/04/24 09:43:17;;;;;;;2.70;1.00;;;18.60;99.90;;;;;;5027653;28;20377;-92
2022/04/24 09:45:49;;;;;;;3.22;1.02;;;18.60;99.90;;;;;;5027803;28;20385;-89
2022/04/24 09:48:21;;;;;;;3.42;1.40;;;18.60;99.90;;;;;;5027889;28;20883;-87
2022/04/24 09:50:49;;;;;;;5.65;1.80;;;18.50;99.90;;;;;;5026823;28;20436;-88
2022/04/24 09:53:19;;;;;;;4.28;1.40;;;18.40;99.90;;;;;;5011176;28;20402;-90
2022/04/24 09:55:49;;;;;;;4.72;1.35;;;18.30;99.90;;;;;;5027591;28;20409;-89
2022/04/24 09:58:16;;;;;;;7.15;1.58;;;18.10;99.90;;;;;;5027432;28;20393;-90
2022/04/24 10:00:46;;;;;;;4.13;1.60;;;18.00;99.90;;;;;;5027350;28;20420;-89
2022/04/24 10:03:15;;;;;;;2.53;1.40;;;18.00;99.90;;;;;;5027399;28;20467;-88
2022/04/24 10:05:45;;;;;;;2.90;1.33;;;17.90;99.90;;;;;;5027637;28;20413;-87
2022/04/24 10:08:12;;;;;;;3.28;1.40;;;17.90;99.90;;;;;;5027573;28;20377;-90
2022/04/24 10:10:39;;;;;;;3.20;1.50;;;17.80;99.90;;;;;;5028865;28;20425;-87
2022/04/24 10:13:09;;;;;;;4.43;1.35;;;17.70;99.90;;;;;;5041993;28;20385;-89
2022/04/24 10:15:43;;;;;;;2.53;1.00;;;17.70;99.90;;;;;;5091961;28;20396;-89
2022/04/24 10:18:16;;;;;;;3.22;1.00;;;17.60;99.90;;;;;;5090831;28;20384;-90
2022/04/24 10:21:21;;;;;;;2.95;1.00;;;17.60;99.90;;;;;;5090159;28;20391;-89
2022/04/24 10:23:48;;;;;;;2.53;0.90;;;17.60;99.90;;;;;;5089301;28;20919;-89
2022/04/24 10:26:20;;;;;;;5.05;0.90;;;17.60;99.90;;;;;;5089353;28;20433;-86
2022/04/24 10:28:47;;;;;;;3.33;1.15;;;17.60;99.90;;;;;;5071199;28;20368;-89
2022/04/24 10:31:16;;;;;;;2.70;0.88;;;17.60;99.90;;;;;;5089244;28;20407;-90
2022/04/24 10:33:55;;;;;;;1.63;0.90;;;17.60;99.90;;;;;;5089183;28;20395;-90
2022/04/24 10:36:23;;;;;;;2.65;0.90;;;17.60;99.90;;;;;;5089174;28;20431;-88
2022/04/24 10:38:57;;;;;;;1.80;0.90;;;17.60;99.90;;;;;;5088826;28;20380;-90
2022/04/24 10:41:29;;;;;;;2.20;1.10;;;17.60;99.90;;;;;;5088976;28;20735;-87
2022/04/24 10:44:12;;;;;;;3.63;1.40;;;17.60;99.90;;;;;;5070660;28;21050;-88
2022/04/24 10:46:43;;;;;;;3.42;1.30;;;17.50;99.90;;;;;;5088920;28;20864;-88
2022/04/24 10:49:18;;;;;;;2.55;1.17;;;17.50;99.90;;;;;;5070477;28;20408;-89
2022/04/24 10:52:07;;;;;;;2.55;1.13;;;17.40;99.90;;;;;;5088654;28;20951;-87
2022/04/24 10:54:39;;;;;;;2.90;1.00;;;17.40;99.90;;;;;;5088611;28;20392;-88
2022/04/24 10:57:22;;;;;;;2.90;1.08;;;17.30;99.90;;;;;;5088600;28;20383;-88
2022/04/24 10:59:58;;;;;;;2.30;1.10;;;17.30;99.90;;;;;;5088962;28;20778;-87
2022/04/24 11:02:32;;;;;;;2.60;0.90;;;17.40;99.90;;;;;;5085507;28;20874;-87
2022/04/24 11:05:04;;;;;;;2.85;0.80;;;17.40;99.90;;;;;;5088529;28;20399;-89
2022/04/24 11:07:31;;;;;;;1.27;0.60;;;17.40;99.90;;;;;;5088634;28;21001;-90
2022/04/24 11:10:10;;;;;;;1.43;0.70;;;17.40;99.90;;;;;;5088535;28;20878;-90
2022/04/24 11:12:38;;;;;;;1.25;0.50;;;17.50;99.90;;;;;;5088178;28;20365;-91
2022/04/24 11:15:08;;;;;;;1.27;0.50;;;17.40;99.90;;;;;;5088397;28;20906;-88
2022/04/24 11:17:36;;;;;;;0.88;0.40;;;17.40;99.90;;;;;;5070132;28;20390;-90
2022/04/24 11:20:09;;;;;;;0.80;0.50;;;17.40;99.90;;;;;;5088226;28;20407;-90
2022/04/24 11:22:46;;;;;;;1.08;0.60;;;17.40;99.90;;;;;;5087941;28;20728;-86
2022/04/24 11:25:15;;;;;;;1.23;0.52;;;17.40;99.90;;;;;;5069746;28;20415;-87
2022/04/24 11:27:49;;;;;;;1.60;0.55;;;17.40;99.90;;;;;;5088182;28;20368;-86
2022/04/24 11:30:19;;;;;;;1.10;0.50;;;17.30;99.90;;;;;;5088141;28;20384;-87
2022/04/24 11:33:15;;;;;;;2.58;0.70;;;17.30;99.90;;;;;;5088014;28;20483;-91
2022/04/24 11:35:42;;;;;;;1.45;0.60;;;17.20;99.90;;;;;;5025419;28;20416;-86
2022/04/24 11:38:13;;;;;;;1.95;0.70;;;17.20;99.90;;;;;;5025579;28;20897;-86
2022/04/24 11:40:46;;;;;;;2.15;0.70;;;17.20;99.90;;;;;;5025220;28;20416;-92
2022/04/24 11:43:17;;;;;;;1.83;0.60;;;17.10;99.90;;;;;;5025984;28;20428;-90
2022/04/24 11:51:23;;;;;;;1.27;0.70;;;16.90;99.90;;;;;;5024995;28;20467;-86
2022/04/24 11:53:50;;;;;;;3.00;0.77;;;16.90;99.90;;;;;;5025289;28;20484;-88
2022/04/24 11:56:17;;;;;;;2.10;0.70;;;16.90;99.90;;;;;;5025339;28;20921;-86
2022/04/24 11:58:44;;;;;;;1.77;0.60;;;16.80;99.90;;;;;;5025779;28;20862;-87
2022/04/24 12:01:18;;;;;;;0.73;0.50;;;16.80;99.90;;;;;;5027573;28;20398;-91
2022/04/24 12:03:46;;;;;;;1.23;0.60;;;16.80;99.90;;;;;;5041468;28;20362;-89
2022/04/24 12:06:14;;;;;;;0.88;0.30;;;16.80;99.90;;;;;;5029116;28;20865;-85
2022/04/24 12:08:50;;;;;;;1.00;0.40;;;16.80;99.90;;;;;;5024973;28;20397;-85
2022/04/24 12:11:31;;;;;;;0.80;0.50;;;16.90;99.90;;;;;;5035869;28;20384;-89
2022/04/24 12:14:10;;;;;;;0.98;0.50;;;16.90;99.90;;;;;;5086871;28;20472;-85
2022/04/24 12:16:45;;;;;;;1.37;0.60;;;17.00;99.90;;;;;;5068114;28;20425;-87
2022/04/24 12:19:17;;;;;;;1.00;0.70;;;17.00;99.90;;;;;;5087340;28;20368;-91
2022/04/24 12:21:51;;;;;;;0.90;0.67;;;17.00;99.90;;;;;;5087284;28;20371;-88
2022/04/24 12:24:18;;;;;;;1.02;0.50;;;17.00;99.90;;;;;;5087194;28;20364;-86
2022/04/24 12:26:50;;;;;;;1.88;0.50;;;17.00;99.90;;;;;;5087148;28;21197;-88
2022/04/24 12:29:18;;;;;;;0.85;0.50;;;17.00;99.90;;;;;;5086787;28;20834;-85
2022/04/24 12:31:46;;;;;;;1.10;0.60;;;17.00;99.90;;;;;;5086993;28;20376;-85
2022/04/24 12:34:14;;;;;;;0.70;0.40;;;17.00;99.90;;;;;;5068588;28;20396;-88
2022/04/24 12:36:50;;;;;;;1.15;0.40;;;17.00;99.90;;;;;;5087009;28;20411;-89
2022/04/24 12:39:28;;;;;;;1.35;0.50;;;16.90;99.90;;;;;;5087031;28;20376;-86
2022/04/24 12:41:56;;;;;;;0.60;0.40;;;16.90;99.90;;;;;;5086852;28;20483;-87
2022/04/24 12:44:23;;;;;;;2.17;0.50;;;16.90;99.90;;;;;;5086896;28;20372;-85
2022/04/24 12:46:50;;;;;;;2.40;0.60;;;16.90;99.90;;;;;;5087122;28;20407;-86
2022/04/24 12:49:38;;;;;;;0.90;0.50;;;16.90;99.90;;;;;;5086940;28;20364;-86
2022/04/24 12:52:05;;;;;;;1.35;0.40;;;16.90;99.90;;;;;;5086753;28;20357;-87
2022/04/24 12:54:32;;;;;;;0.60;0.50;;;16.90;99.90;;;;;;5068464;28;20392;-88
2022/04/24 12:56:59;;;;;;;2.38;0.60;;;16.90;99.90;;;;;;5086659;28;20388;-88
2022/04/24 12:59:26;;;;;;;1.02;0.70;;;16.90;99.90;;;;;;5086426;28;20386;-88
2022/04/24 13:01:53;;;;;;;1.40;0.50;;;16.90;99.90;;;;;;5086636;28;20472;-85